Time;durP1;ratioP1;P1;durP2;ratioP2;P2;SDS_P1;SDS_P2;PMS_P1;PMS_P2;Temp;Humidity;BMP_temperature;BMP_pressure;BME280_temperature;BME280_humidity;BME280_pressure;Samples;Min_cycle;Max_cycle;Signal;HPM_P1;HPM_P2
2023/08/29 00:01:13;;;;;;;45.55;41.95;;;17.50;99.90;;;;;;5033823;28;20058;-68
2023/08/29 00:03:39;;;;;;;46.17;42.40;;;17.40;99.90;;;;;;5036671;28;20073;-68
2023/08/29 00:06:05;;;;;;;43.40;39.90;;;16.90;99.90;;;;;;5024357;28;20460;-67
2023/08/29 00:08:34;;;;;;;41.10;37.50;;;17.40;99.90;;;;;;5032238;28;20553;-68
2023/08/29 00:11:02;;;;;;;116.10;38.70;;;17.00;99.90;;;;;;5032127;28;20091;-68
2023/08/29 00:13:29;;;;;;;40.63;37.60;;;17.50;99.90;;;;;;5031450;28;20045;-69
2023/08/29 00:15:55;;;;;;;41.85;38.63;;;17.50;99.90;;;;;;5031896;28;20025;-68
2023/08/29 00:18:21;;;;;;;42.08;38.67;;;16.90;99.90;;;;;;5032013;28;20042;-69
2023/08/29 00:20:47;;;;;;;45.42;41.83;;;17.40;99.90;;;;;;5032254;28;20107;-64
2023/08/29 00:23:12;;;;;;;45.05;41.25;;;17.20;99.90;;;;;;5031407;28;20037;-67
2023/08/29 00:25:38;;;;;;;43.92;40.42;;;16.70;99.90;;;;;;5030249;28;20506;-66
2023/08/29 00:28:04;;;;;;;45.60;42.00;;;16.70;99.90;;;;;;5031801;28;20080;-67
2023/08/29 00:30:39;;;;;;;44.85;41.03;;;17.00;99.90;;;;;;5036339;28;20044;-66
2023/08/29 00:33:06;;;;;;;45.38;41.55;;;17.10;99.90;;;;;;5038057;28;20099;-67
2023/08/29 00:35:31;;;;;;;46.80;42.83;;;17.20;99.90;;;;;;5010233;28;20446;-66
2023/08/29 00:37:58;;;;;;;43.10;39.78;;;17.20;99.90;;;;;;5031101;28;20037;-67
2023/08/29 00:40:30;;;;;;;45.63;41.83;;;17.00;99.90;;;;;;5030147;28;20123;-66
2023/08/29 00:42:59;;;;;;;45.10;41.47;;;17.20;99.90;;;;;;5028871;28;20080;-67
2023/08/29 00:45:27;;;;;;;44.67;41.20;;;16.50;99.90;;;;;;5029081;28;20409;-66
2023/08/29 00:47:53;;;;;;;46.00;42.40;;;16.90;99.90;;;;;;5028101;28;20037;-67
2023/08/29 00:50:19;;;;;;;41.53;38.15;;;16.90;99.90;;;;;;5031273;28;20113;-66
2023/08/29 00:52:45;;;;;;;44.05;40.50;;;16.90;99.90;;;;;;5030403;28;20080;-66
2023/08/29 00:55:11;;;;;;;47.10;43.40;;;16.90;99.90;;;;;;5030192;28;20088;-67
2023/08/29 00:57:37;;;;;;;44.75;41.30;;;16.80;99.90;;;;;;5030836;28;20030;-66
2023/08/29 01:00:03;;;;;;;44.63;40.47;;;17.00;99.90;;;;;;5030968;28;20128;-66
2023/08/29 01:02:29;;;;;;;41.92;38.38;;;16.30;99.90;;;;;;5035249;28;20091;-66
2023/08/29 01:04:54;;;;;;;41.95;38.75;;;16.20;99.90;;;;;;5027890;28;20144;-67
2023/08/29 01:07:20;;;;;;;42.40;39.00;;;16.60;99.90;;;;;;5029417;28;20043;-66
2023/08/29 01:09:46;;;;;;;43.47;39.90;;;16.10;99.90;;;;;;5030771;28;20068;-66
2023/08/29 01:12:16;;;;;;;43.13;39.75;;;16.30;99.90;;;;;;5029502;28;20044;-66
2023/08/29 01:14:58;;;;;;;40.90;37.50;;;16.60;99.90;;;;;;5028950;28;20053;-66
2023/08/29 01:17:36;;;;;;;40.90;37.83;;;16.10;99.90;;;;;;5028734;28;20083;-67
2023/08/29 01:20:05;;;;;;;42.20;38.80;;;15.50;99.90;;;;;;5026256;28;20151;-66
2023/08/29 01:23:08;;;;;;;39.72;36.20;;;16.80;99.90;;;;;;5028459;28;20034;-66
2023/08/29 01:25:46;;;;;;;39.03;36.03;;;16.20;99.90;;;;;;5030055;28;20080;-66
2023/08/29 01:28:12;;;;;;;38.13;35.08;;;17.10;99.90;;;;;;5030860;28;20137;-66
2023/08/29 01:30:39;;;;;;;37.53;34.83;;;16.20;99.90;;;;;;5036107;28;20041;-66
2023/08/29 01:33:05;;;;;;;39.10;36.22;;;16.50;99.90;;;;;;5032194;28;20530;-63
2023/08/29 01:35:31;;;;;;;38.33;35.53;;;16.30;99.90;;;;;;5030034;28;20076;-63
2023/08/29 01:37:57;;;;;;;39.90;36.58;;;16.20;99.90;;;;;;5029868;28;20041;-63
2023/08/29 01:40:22;;;;;;;37.28;34.00;;;16.80;99.90;;;;;;5030742;28;20125;-64
2023/08/29 01:42:48;;;;;;;40.03;35.15;;;16.60;99.90;;;;;;5029596;28;20037;-62
2023/08/29 01:45:13;;;;;;;40.10;37.00;;;16.70;99.90;;;;;;5030615;28;20030;-62
2023/08/29 01:47:39;;;;;;;39.70;36.75;;;16.30;99.90;;;;;;5029905;28;20037;-62
2023/08/29 01:50:05;;;;;;;41.50;38.45;;;16.60;99.90;;;;;;5012106;28;20037;-63
2023/08/29 01:52:31;;;;;;;41.88;38.78;;;16.90;99.90;;;;;;5029846;28;20832;-62
2023/08/29 01:54:58;;;;;;;41.80;38.60;;;16.90;99.90;;;;;;5029401;28;20033;-63
2023/08/29 01:57:26;;;;;;;40.20;37.10;;;16.30;99.90;;;;;;5022406;28;20041;-63
2023/08/29 01:59:52;;;;;;;40.55;37.35;;;16.90;99.90;;;;;;5034559;28;20110;-63
2023/08/29 02:02:19;;;;;;;41.20;38.15;;;17.10;99.90;;;;;;5028355;28;20447;-63
2023/08/29 02:04:44;;;;;;;40.53;37.53;;;16.60;99.90;;;;;;5026733;28;20513;-64
2023/08/29 02:07:10;;;;;;;41.50;38.10;;;16.60;99.90;;;;;;5041864;28;20056;-62
2023/08/29 02:09:35;;;;;;;43.17;38.78;;;16.90;99.90;;;;;;5030157;28;20444;-63
2023/08/29 02:12:01;;;;;;;78.03;41.13;;;16.80;99.90;;;;;;5029320;28;20060;-65
2023/08/29 02:14:26;;;;;;;44.33;40.40;;;16.80;99.90;;;;;;5027838;28;20079;-63
2023/08/29 02:16:52;;;;;;;43.75;40.05;;;16.20;99.90;;;;;;5030242;28;20407;-62
2023/08/29 02:19:18;;;;;;;42.63;38.20;;;16.40;99.90;;;;;;5029951;28;20081;-64
2023/08/29 02:21:43;;;;;;;42.78;39.47;;;16.70;99.90;;;;;;5028156;28;20037;-63
2023/08/29 02:24:09;;;;;;;44.63;41.20;;;16.00;99.90;;;;;;5027380;28;20415;-63
2023/08/29 02:26:34;;;;;;;43.00;39.00;;;16.60;99.90;;;;;;5026634;28;20426;-65
2023/08/29 02:29:00;;;;;;;41.97;38.08;;;16.40;99.90;;;;;;5028894;28;20041;-63
2023/08/29 02:31:25;;;;;;;42.33;39.03;;;16.00;99.90;;;;;;5028638;28;20038;-63
2023/08/29 02:33:53;;;;;;;85.78;43.22;;;16.20;99.90;;;;;;5036589;28;20047;-63
2023/08/29 02:36:19;;;;;;;60.25;40.88;;;16.40;99.90;;;;;;5028767;28;20415;-63
2023/08/29 02:38:44;;;;;;;94.03;41.03;;;16.40;99.90;;;;;;5029764;28;20037;-62
2023/08/29 02:41:11;;;;;;;112.63;41.58;;;16.20;99.90;;;;;;5028522;28;20060;-66
2023/08/29 02:43:37;;;;;;;177.27;42.95;;;15.70;99.90;;;;;;5029367;28;20041;-63
2023/08/29 02:46:03;;;;;;;42.30;38.17;;;16.00;99.90;;;;;;5037060;28;20502;-63
2023/08/29 02:48:29;;;;;;;44.00;40.80;;;15.70;99.90;;;;;;5028582;28;20044;-64
2023/08/29 02:50:54;;;;;;;41.55;38.45;;;16.10;99.90;;;;;;5029153;28;20039;-64
2023/08/29 02:53:21;;;;;;;41.72;38.63;;;15.80;99.90;;;;;;5028504;28;20095;-63
2023/08/29 02:55:50;;;;;;;43.47;39.90;;;15.80;99.90;;;;;;5028070;28;20051;-62
2023/08/29 02:58:16;;;;;;;44.08;40.78;;;15.70;99.90;;;;;;5029696;28;20462;-64
2023/08/29 03:00:42;;;;;;;43.05;39.70;;;16.20;99.90;;;;;;5029422;28;20054;-62
2023/08/29 03:03:07;;;;;;;46.40;42.58;;;15.80;99.90;;;;;;5021549;28;20050;-64
2023/08/29 03:05:33;;;;;;;41.75;38.63;;;16.50;99.90;;;;;;5029118;28;20376;-63
2023/08/29 03:07:59;;;;;;;44.50;41.00;;;16.30;99.90;;;;;;5029224;28;20476;-64
2023/08/29 03:10:25;;;;;;;45.10;41.72;;;15.80;99.90;;;;;;5027030;28;20052;-63
2023/08/29 03:12:51;;;;;;;43.72;40.42;;;15.80;99.90;;;;;;5027989;28;20497;-62
2023/08/29 03:15:18;;;;;;;40.88;37.83;;;15.70;99.90;;;;;;5025577;28;20044;-63
2023/08/29 03:17:44;;;;;;;41.47;38.22;;;16.50;99.90;;;;;;5028389;28;20038;-62
2023/08/29 03:20:10;;;;;;;39.50;36.70;;;15.80;99.90;;;;;;5029053;28;20407;-63
2023/08/29 03:22:36;;;;;;;38.78;35.75;;;15.70;99.90;;;;;;5028775;28;20033;-64
2023/08/29 03:25:02;;;;;;;39.22;36.42;;;16.50;99.90;;;;;;5027414;28;20053;-63
2023/08/29 03:27:28;;;;;;;40.78;37.85;;;16.50;99.90;;;;;;5017566;28;20049;-62
2023/08/29 03:29:54;;;;;;;41.75;38.75;;;16.40;99.90;;;;;;5031371;28;20103;-62
2023/08/29 03:32:19;;;;;;;40.38;37.17;;;15.80;99.90;;;;;;5031210;28;20045;-62
2023/08/29 03:34:45;;;;;;;40.47;37.33;;;15.70;99.90;;;;;;5032770;28;20118;-63
2023/08/29 03:37:11;;;;;;;40.20;37.10;;;15.70;99.90;;;;;;5031470;28;20041;-64
2023/08/29 03:39:36;;;;;;;57.50;38.08;;;16.00;99.90;;;;;;5025661;28;20052;-62
2023/08/29 03:42:03;;;;;;;141.57;39.53;;;16.30;99.90;;;;;;5032137;28;20037;-62
2023/08/29 03:44:28;;;;;;;39.28;36.33;;;16.20;99.90;;;;;;5031304;28;20049;-64
2023/08/29 03:46:54;;;;;;;38.88;35.67;;;15.60;99.90;;;;;;5032666;28;20075;-63
2023/08/29 03:49:19;;;;;;;39.05;36.10;;;15.40;99.90;;;;;;5031751;28;20064;-63
2023/08/29 03:51:45;;;;;;;40.00;36.75;;;16.00;99.90;;;;;;5032654;28;20410;-64
2023/08/29 03:54:10;;;;;;;41.22;37.40;;;15.20;99.90;;;;;;5034198;28;20546;-66
2023/08/29 03:56:36;;;;;;;43.33;39.58;;;15.90;99.90;;;;;;5032105;28;20541;-66
2023/08/29 03:59:04;;;;;;;41.13;37.83;;;15.90;99.90;;;;;;5030046;28;20029;-66
2023/08/29 04:01:29;;;;;;;44.03;40.72;;;16.10;99.90;;;;;;5032436;28;20083;-66
2023/08/29 04:03:55;;;;;;;41.13;38.03;;;16.00;99.90;;;;;;5031593;28;20148;-66
2023/08/29 04:06:20;;;;;;;43.00;39.80;;;15.20;99.90;;;;;;5032537;28;20499;-66
2023/08/29 04:08:46;;;;;;;40.72;37.58;;;16.20;99.90;;;;;;5031731;28;20515;-66
2023/08/29 04:11:12;;;;;;;41.40;38.30;;;15.30;99.90;;;;;;5032176;28;20152;-67
2023/08/29 04:13:37;;;;;;;42.72;39.30;;;15.90;99.90;;;;;;5031194;28;20053;-66
2023/08/29 04:16:03;;;;;;;43.65;40.35;;;15.30;99.90;;;;;;5031756;28;20032;-66
2023/08/29 04:18:33;;;;;;;42.15;38.95;;;15.50;99.90;;;;;;5031602;28;20377;-66
2023/08/29 04:20:59;;;;;;;41.97;38.88;;;15.30;99.90;;;;;;5023213;28;20032;-66
2023/08/29 04:23:25;;;;;;;44.17;40.60;;;15.90;99.90;;;;;;5033025;28;20209;-66
2023/08/29 04:25:59;;;;;;;45.10;41.53;;;15.20;99.90;;;;;;5033142;28;20045;-66
2023/08/29 04:28:25;;;;;;;42.33;39.13;;;15.30;99.90;;;;;;5027775;28;20041;-66
2023/08/29 04:30:51;;;;;;;39.15;36.15;;;16.60;99.90;;;;;;5031142;28;20040;-66
2023/08/29 04:33:16;;;;;;;46.50;43.00;;;15.80;99.90;;;;;;5026470;28;20051;-66
2023/08/29 04:35:42;;;;;;;46.30;42.67;;;15.90;99.90;;;;;;5032074;28;20044;-66
2023/08/29 04:38:08;;;;;;;44.88;41.35;;;15.60;99.90;;;;;;5030862;28;20034;-66
2023/08/29 04:40:35;;;;;;;45.78;42.03;;;15.80;99.90;;;;;;5030196;28;20503;-66
2023/08/29 04:43:01;;;;;;;46.92;43.42;;;16.50;99.90;;;;;;5018870;28;20516;-66
2023/08/29 04:45:27;;;;;;;47.05;43.03;;;15.80;99.90;;;;;;5036170;28;20072;-66
2023/08/29 04:47:52;;;;;;;43.55;40.15;;;15.90;99.90;;;;;;5038256;28;20744;-66
2023/08/29 04:50:18;;;;;;;44.90;41.20;;;16.80;99.90;;;;;;5031627;28;20495;-66
2023/08/29 04:52:44;;;;;;;43.72;40.42;;;16.60;99.90;;;;;;5031382;28;20414;-66
2023/08/29 04:55:09;;;;;;;44.97;41.67;;;17.20;99.90;;;;;;5034297;28;20822;-66
2023/08/29 04:57:35;;;;;;;40.83;37.63;;;16.90;99.90;;;;;;5031390;28;20056;-66
2023/08/29 05:00:00;;;;;;;39.28;36.15;;;17.20;99.90;;;;;;5029813;28;20053;-66
2023/08/29 05:02:27;;;;;;;45.70;42.08;;;16.60;99.90;;;;;;5031224;28;20088;-64
2023/08/29 05:04:52;;;;;;;48.33;44.53;;;16.40;99.90;;;;;;5031560;28;20090;-64
2023/08/29 05:07:18;;;;;;;38.53;35.38;;;16.70;99.90;;;;;;5026682;28;20049;-64
2023/08/29 05:09:44;;;;;;;36.00;33.20;;;17.20;99.90;;;;;;5036371;28;20048;-64
2023/08/29 05:12:10;;;;;;;39.92;36.63;;;16.70;99.90;;;;;;5030944;28;20496;-65
2023/08/29 05:14:39;;;;;;;40.85;37.55;;;17.70;99.90;;;;;;5028934;28;20038;-64
2023/08/29 05:17:05;;;;;;;37.88;34.35;;;17.90;99.90;;;;;;5029014;28;20403;-64
2023/08/29 05:19:31;;;;;;;40.67;37.40;;;18.00;99.90;;;;;;5029819;28;20080;-65
2023/08/29 05:21:57;;;;;;;40.72;37.72;;;16.90;99.90;;;;;;5014271;28;20037;-65
2023/08/29 05:24:22;;;;;;;42.72;39.60;;;17.40;99.90;;;;;;5027203;28;20551;-65
2023/08/29 05:26:49;;;;;;;40.78;37.47;;;17.10;99.90;;;;;;5027787;28;20068;-64
2023/08/29 05:29:14;;;;;;;41.13;37.97;;;18.20;99.90;;;;;;5027413;28;20037;-64
2023/08/29 05:31:40;;;;;;;40.47;37.28;;;18.40;99.90;;;;;;5029203;28;20037;-65
2023/08/29 05:34:05;;;;;;;39.03;36.03;;;17.30;99.90;;;;;;5029929;28;20491;-64
2023/08/29 05:36:31;;;;;;;40.08;36.83;;;18.60;99.90;;;;;;5029913;28;20491;-65
2023/08/29 05:38:56;;;;;;;38.28;35.30;;;18.40;99.90;;;;;;5029605;28;20959;-64
2023/08/29 05:41:22;;;;;;;39.33;36.22;;;18.30;99.90;;;;;;5027818;28;20041;-65
2023/08/29 05:43:48;;;;;;;38.55;35.45;;;18.80;99.90;;;;;;5028424;28;20467;-64
2023/08/29 05:46:13;;;;;;;36.30;33.42;;;18.90;99.90;;;;;;5030073;28;20037;-66
2023/08/29 05:48:39;;;;;;;36.13;33.38;;;18.30;99.90;;;;;;5024932;28;20049;-65
2023/08/29 05:51:04;;;;;;;36.75;33.88;;;18.90;99.90;;;;;;5040876;28;20081;-65
2023/08/29 05:53:30;;;;;;;36.42;33.47;;;17.70;99.90;;;;;;5024747;28;20096;-65
2023/08/29 05:55:55;;;;;;;35.83;33.03;;;19.10;99.90;;;;;;5025851;28;20045;-66
2023/08/29 05:58:22;;;;;;;37.97;35.10;;;19.10;99.90;;;;;;5025788;28;20037;-67
2023/08/29 06:00:51;;;;;;;37.63;34.50;;;19.00;99.90;;;;;;5023089;28;20049;-65
2023/08/29 06:03:16;;;;;;;38.95;35.95;;;19.10;99.90;;;;;;5026248;28;20116;-64
2023/08/29 06:05:42;;;;;;;34.70;31.98;;;19.60;99.90;;;;;;5027041;28;20572;-66
2023/08/29 06:08:08;;;;;;;35.72;33.03;;;18.20;99.90;;;;;;5028543;28;20063;-66
2023/08/29 06:10:34;;;;;;;36.25;33.35;;;18.30;99.90;;;;;;5026925;28;20033;-66
2023/08/29 06:13:00;;;;;;;36.67;33.90;;;18.90;99.90;;;;;;5028658;28;20785;-67
2023/08/29 06:15:25;;;;;;;36.10;33.40;;;18.90;99.90;;;;;;5020113;28;20051;-66
2023/08/29 06:17:51;;;;;;;35.28;32.58;;;19.30;99.90;;;;;;5022325;28;20041;-67
2023/08/29 06:20:17;;;;;;;37.33;33.97;;;19.30;99.90;;;;;;5020969;28;20063;-67
2023/08/29 06:22:43;;;;;;;36.22;33.42;;;18.30;99.90;;;;;;5015885;28;20139;-65
2023/08/29 06:25:09;;;;;;;36.72;33.83;;;18.00;99.90;;;;;;5021769;28;20100;-67
2023/08/29 06:27:36;;;;;;;36.88;33.97;;;18.80;99.90;;;;;;5019917;28;20076;-66
2023/08/29 06:30:02;;;;;;;37.60;34.47;;;18.30;99.90;;;;;;5017623;28;20141;-67
2023/08/29 06:32:29;;;;;;;37.38;34.30;;;19.30;99.90;;;;;;5019340;28;20049;-66
2023/08/29 06:34:55;;;;;;;37.00;34.10;;;18.10;99.90;;;;;;5016211;28;20048;-67
2023/08/29 06:37:21;;;;;;;37.63;34.58;;;17.90;99.90;;;;;;5027352;28;20499;-66
2023/08/29 06:39:47;;;;;;;37.67;34.78;;;18.60;99.90;;;;;;5026111;28;20492;-66
2023/08/29 06:42:12;;;;;;;38.85;35.75;;;19.40;99.90;;;;;;5022829;28;20096;-67
2023/08/29 06:44:38;;;;;;;39.13;35.97;;;18.30;99.90;;;;;;5017635;28;20049;-67
2023/08/29 06:47:04;;;;;;;40.08;36.70;;;19.30;99.90;;;;;;5020867;28;20041;-67
2023/08/29 06:49:30;;;;;;;40.40;37.20;;;19.50;99.90;;;;;;5018417;28;20440;-67
2023/08/29 06:51:56;;;;;;;40.80;37.38;;;18.30;99.90;;;;;;5020179;28;20083;-67
2023/08/29 06:54:21;;;;;;;38.80;35.70;;;19.10;99.90;;;;;;5018086;28;20045;-67
2023/08/29 06:56:49;;;;;;;37.60;34.45;;;19.60;99.90;;;;;;5016782;28;20125;-67
2023/08/29 06:59:14;;;;;;;38.20;34.97;;;18.20;99.90;;;;;;5016691;28;20053;-67
2023/08/29 07:01:40;;;;;;;38.50;35.30;;;19.80;99.90;;;;;;5019040;28;20095;-67
2023/08/29 07:04:08;;;;;;;39.30;36.10;;;18.90;99.90;;;;;;5024583;28;20049;-67
2023/08/29 07:06:34;;;;;;;38.45;35.35;;;19.80;99.90;;;;;;5024272;28;20034;-67
2023/08/29 07:09:00;;;;;;;38.33;34.85;;;20.00;99.90;;;;;;5025762;28;21972;-67
2023/08/29 07:11:26;;;;;;;38.97;35.55;;;18.60;99.90;;;;;;5024770;28;20069;-67
2023/08/29 07:13:52;;;;;;;38.30;35.28;;;20.00;99.90;;;;;;5025926;28;20507;-67
2023/08/29 07:16:17;;;;;;;40.38;37.17;;;20.10;99.90;;;;;;5022690;28;20120;-67
2023/08/29 07:18:44;;;;;;;41.55;38.33;;;19.00;99.90;;;;;;5028998;28;20038;-67
2023/08/29 07:21:10;;;;;;;40.63;37.33;;;18.70;99.90;;;;;;5026328;28;20037;-67
2023/08/29 07:23:35;;;;;;;41.17;37.72;;;20.20;99.90;;;;;;5026347;28;20071;-66
2023/08/29 07:26:01;;;;;;;42.60;39.20;;;19.10;99.90;;;;;;5022809;28;20754;-67
2023/08/29 07:28:26;;;;;;;43.15;39.35;;;19.10;99.90;;;;;;5025142;28;20415;-66
2023/08/29 07:30:52;;;;;;;40.45;36.88;;;19.50;99.90;;;;;;5026442;28;20049;-66
2023/08/29 07:33:18;;;;;;;40.25;36.75;;;19.50;99.90;;;;;;5024608;28;20056;-66
2023/08/29 07:35:45;;;;;;;41.03;37.40;;;20.80;99.90;;;;;;5023602;28;20075;-66
2023/08/29 07:38:12;;;;;;;39.60;36.20;;;20.30;99.90;;;;;;5023315;28;20064;-66
2023/08/29 07:40:38;;;;;;;40.08;36.67;;;19.60;99.90;;;;;;5026700;28;20041;-66
2023/08/29 07:43:06;;;;;;;40.78;37.03;;;19.60;99.90;;;;;;5024071;28;20048;-66
2023/08/29 07:45:31;;;;;;;39.20;35.80;;;20.90;99.90;;;;;;5023851;28;20116;-66
2023/08/29 07:47:57;;;;;;;40.40;36.90;;;19.60;99.90;;;;;;5027835;28;20176;-67
2023/08/29 07:50:23;;;;;;;42.22;38.63;;;20.70;99.90;;;;;;5027536;28;20048;-66
2023/08/29 07:52:48;;;;;;;39.95;36.60;;;20.70;99.90;;;;;;5026667;28;20038;-66
2023/08/29 07:55:14;;;;;;;39.25;35.95;;;19.70;99.90;;;;;;5025957;28;20135;-67
2023/08/29 07:57:40;;;;;;;41.25;37.53;;;20.80;99.90;;;;;;5025981;28;20113;-66
2023/08/29 08:00:09;;;;;;;40.55;37.15;;;20.50;99.90;;;;;;5024461;28;20061;-67
2023/08/29 08:02:38;;;;;;;39.28;35.97;;;20.10;99.90;;;;;;5025958;28;20095;-67
2023/08/29 08:05:06;;;;;;;38.42;35.17;;;20.00;99.90;;;;;;5023174;28;20158;-66
2023/08/29 08:07:32;;;;;;;34.00;31.30;;;21.30;99.90;;;;;;5025376;28;20041;-66
2023/08/29 08:09:57;;;;;;;30.98;28.48;;;21.30;99.90;;;;;;5025286;28;20041;-66
2023/08/29 08:12:23;;;;;;;27.45;25.10;;;21.30;99.90;;;;;;5024622;28;20096;-67
2023/08/29 08:14:50;;;;;;;28.73;26.52;;;21.10;99.90;;;;;;5023957;28;20052;-66
2023/08/29 08:17:16;;;;;;;27.10;24.80;;;20.80;99.90;;;;;;5025470;28;20060;-66
2023/08/29 08:19:41;;;;;;;23.45;21.65;;;21.00;99.90;;;;;;5022795;28;20495;-67
2023/08/29 08:22:08;;;;;;;22.48;20.88;;;21.20;99.90;;;;;;5024205;28;20037;-67
2023/08/29 08:24:34;;;;;;;25.90;23.88;;;21.40;99.90;;;;;;5020675;28;20057;-66
2023/08/29 08:26:59;;;;;;;19.98;18.27;;;21.90;99.90;;;;;;5025103;28;20419;-66
2023/08/29 08:29:25;;;;;;;20.35;18.95;;;21.70;99.90;;;;;;5023341;28;20485;-66
2023/08/29 08:31:50;;;;;;;23.40;21.60;;;21.60;99.90;;;;;;5024810;28;20050;-67
2023/08/29 08:34:16;;;;;;;24.92;23.02;;;21.90;99.90;;;;;;5021797;28;20083;-67
2023/08/29 08:36:42;;;;;;;25.42;23.40;;;22.00;99.90;;;;;;5023604;28;20052;-67
2023/08/29 08:39:08;;;;;;;19.33;17.65;;;22.10;99.90;;;;;;5026762;28;20095;-67
2023/08/29 08:41:33;;;;;;;22.33;20.63;;;22.20;99.90;;;;;;5022959;28;20511;-67
2023/08/29 08:44:03;;;;;;;21.52;20.02;;;22.70;99.90;;;;;;5024103;28;20038;-67
2023/08/29 08:46:30;;;;;;;22.38;20.67;;;22.40;99.90;;;;;;5021391;28;20569;-67
2023/08/29 08:48:56;;;;;;;20.08;18.65;;;22.70;99.90;;;;;;5020229;28;20144;-67
2023/08/29 08:51:24;;;;;;;18.15;16.67;;;22.70;99.90;;;;;;5019759;28;20036;-67
2023/08/29 08:53:52;;;;;;;17.27;16.08;;;22.70;99.90;;;;;;5020104;28;20049;-66
2023/08/29 08:56:18;;;;;;;21.70;20.10;;;22.70;99.90;;;;;;5024583;28;20045;-67
2023/08/29 08:58:44;;;;;;;16.27;14.88;;;22.70;96.30;;;;;;5023324;28;20048;-66
2023/08/29 09:01:10;;;;;;;15.55;14.35;;;22.80;99.90;;;;;;5020131;28;20060;-67
2023/08/29 09:03:35;;;;;;;24.42;22.63;;;22.80;1.00;;;;;;5023774;28;20042;-66
2023/08/29 09:06:01;;;;;;;20.35;18.88;;;22.70;1.00;;;;;;5021882;28;20526;-67
2023/08/29 09:08:31;;;;;;;20.17;18.77;;;22.90;1.00;;;;;;5022108;28;20038;-67
2023/08/29 09:11:01;;;;;;;19.38;17.95;;;22.90;1.00;;;;;;5018470;28;20057;-66
2023/08/29 09:13:26;;;;;;;19.55;18.15;;;22.60;1.00;;;;;;5022112;28;20077;-67
2023/08/29 09:15:52;;;;;;;22.27;20.58;;;22.60;99.90;;;;;;5021065;28;20073;-64
2023/08/29 09:18:32;;;;;;;21.88;20.27;;;23.20;1.00;;;;;;5025337;28;20030;-65
2023/08/29 09:21:00;;;;;;;16.92;15.73;;;22.90;99.90;;;;;;5022749;28;20048;-65
2023/08/29 09:23:35;;;;;;;17.00;15.80;;;22.70;99.90;;;;;;5023994;28;20037;-65
2023/08/29 09:26:01;;;;;;;18.05;16.75;;;22.70;99.90;;;;;;5022084;28;20056;-66
2023/08/29 09:28:28;;;;;;;16.92;15.48;;;23.10;99.90;;;;;;5024633;28;20778;-66
2023/08/29 09:31:10;;;;;;;17.02;15.82;;;23.40;99.90;;;;;;5022680;28;20038;-65
2023/08/29 09:33:38;;;;;;;17.25;16.05;;;23.60;99.90;;;;;;5023532;28;20049;-66
2023/08/29 09:36:07;;;;;;;16.90;15.60;;;23.70;1.00;;;;;;5019610;28;20427;-65
2023/08/29 09:38:36;;;;;;;15.80;14.50;;;23.60;99.90;;;;;;5021950;28;20601;-66
2023/08/29 09:41:02;;;;;;;20.02;18.63;;;23.50;99.90;;;;;;5022622;28;20474;-65
2023/08/29 09:43:28;;;;;;;16.10;14.77;;;23.20;2.60;;;;;;5022968;28;20108;-65
2023/08/29 09:45:55;;;;;;;15.60;14.60;;;23.20;1.00;;;;;;5020027;28;20042;-66
2023/08/29 09:48:21;;;;;;;17.48;16.27;;;23.20;1.00;;;;;;5020814;28;20050;-65
2023/08/29 09:50:48;;;;;;;16.50;15.32;;;23.10;1.00;;;;;;5019546;28;20049;-65
2023/08/29 09:53:16;;;;;;;16.95;15.80;;;23.10;1.00;;;;;;5021004;28;20080;-66
2023/08/29 09:56:10;;;;;;;13.75;12.80;;;23.20;1.00;;;;;;5021527;28;20132;-66
2023/08/29 09:58:38;;;;;;;12.73;11.93;;;23.20;1.00;;;;;;5016886;28;20053;-66
2023/08/29 10:01:05;;;;;;;11.77;10.88;;;23.50;1.00;;;;;;5021102;28;20064;-65
2023/08/29 10:03:31;;;;;;;8.50;7.90;;;24.00;28.30;;;;;;5023627;28;20091;-65
2023/08/29 10:06:00;;;;;;;7.90;7.35;;;23.90;1.00;;;;;;5022697;28;20526;-66
2023/08/29 10:08:51;;;;;;;6.22;5.72;;;24.20;1.00;;;;;;5016972;28;20049;-67
2023/08/29 10:11:19;;;;;;;5.75;5.35;;;24.40;1.00;;;;;;5017024;28;20049;-65
2023/08/29 10:13:46;;;;;;;5.88;5.47;;;24.60;99.90;;;;;;5022432;28;20056;-66
2023/08/29 10:16:13;;;;;;;4.53;4.22;;;24.70;99.90;;;;;;5019366;28;20099;-65
2023/08/29 10:18:39;;;;;;;6.00;5.60;;;24.70;99.90;;;;;;5033409;28;20385;-65
2023/08/29 10:21:05;;;;;;;5.30;4.80;;;25.00;99.90;;;;;;5022778;28;20127;-65
2023/08/29 10:23:31;;;;;;;5.53;5.00;;;25.40;99.90;;;;;;5022938;28;20052;-66
2023/08/29 10:26:00;;;;;;;6.20;5.65;;;25.10;99.90;;;;;;5023158;28;20567;-65
2023/08/29 10:28:25;;;;;;;6.70;6.18;;;25.00;22.90;;;;;;5021549;28;20040;-66
2023/08/29 10:30:54;;;;;;;7.32;6.75;;;24.80;1.00;;;;;;5021511;28;20041;-66
2023/08/29 10:33:20;;;;;;;7.20;6.68;;;24.90;1.00;;;;;;5021071;28;20034;-65
2023/08/29 10:35:49;;;;;;;12.40;11.50;;;24.90;5.40;;;;;;5022328;28;20045;-65
2023/08/29 10:38:17;;;;;;;7.40;6.80;;;25.00;43.00;;;;;;5022648;28;20033;-65
2023/08/29 10:40:43;;;;;;;8.05;7.45;;;24.70;1.00;;;;;;5019797;28;20388;-66
2023/08/29 10:43:18;;;;;;;6.50;6.00;;;24.60;1.00;;;;;;5020305;28;20398;-66
2023/08/29 10:45:56;;;;;;;10.98;10.27;;;25.00;1.00;;;;;;5020235;28;20034;-65
2023/08/29 10:48:44;;;;;;;8.35;7.60;;;24.70;1.00;;;;;;5022531;28;20782;-65
2023/08/29 10:51:25;;;;;;;9.60;8.95;;;24.70;1.00;;;;;;5008725;28;20057;-65
2023/08/29 10:53:57;;;;;;;7.70;7.18;;;24.90;1.00;;;;;;5019491;28;20104;-66
2023/08/29 10:56:26;;;;;;;11.88;10.98;;;25.00;1.00;;;;;;5021474;28;20063;-65
2023/08/29 10:58:52;;;;;;;8.77;8.15;;;24.90;1.00;;;;;;5020660;28;20041;-65
2023/08/29 11:01:30;;;;;;;8.70;7.90;;;24.90;1.00;;;;;;5017191;28;20480;-65
2023/08/29 11:04:00;;;;;;;10.57;9.77;;;24.90;1.00;;;;;;5018959;28;20045;-65
2023/08/29 11:06:47;;;;;;;10.25;9.45;;;24.90;1.00;;;;;;5019178;28;20045;-65
2023/08/29 11:09:20;;;;;;;13.57;12.52;;;24.90;1.00;;;;;;5019142;28;20091;-65
2023/08/29 11:12:05;;;;;;;11.88;10.73;;;24.70;1.00;;;;;;5020836;28;20041;-65
2023/08/29 11:14:53;;;;;;;11.10;10.30;;;24.80;1.00;;;;;;5019742;28;20691;-65
2023/08/29 11:17:25;;;;;;;9.23;8.57;;;24.90;1.00;;;;;;5020624;28;20076;-66
2023/08/29 11:19:55;;;;;;;12.45;11.52;;;24.90;1.00;;;;;;5022425;28;20041;-66
2023/08/29 11:22:26;;;;;;;13.50;12.60;;;25.00;5.50;;;;;;5022051;28;20120;-65
2023/08/29 11:24:54;;;;;;;12.90;12.00;;;24.80;1.00;;;;;;5020912;28;20045;-65
2023/08/29 11:27:24;;;;;;;12.20;11.23;;;24.70;1.00;;;;;;5018593;28;20052;-65
2023/08/29 11:29:52;;;;;;;13.25;12.25;;;24.50;1.00;;;;;;5022382;28;20586;-66
2023/08/29 11:32:19;;;;;;;11.88;11.07;;;24.40;1.00;;;;;;5020241;28;20048;-65
2023/08/29 11:34:54;;;;;;;12.20;11.32;;;24.50;1.00;;;;;;5017219;28;20045;-65
2023/08/29 11:37:25;;;;;;;14.00;13.00;;;24.60;10.70;;;;;;5023634;28;20050;-65
2023/08/29 11:39:55;;;;;;;11.27;10.48;;;24.70;30.80;;;;;;5019931;28;20047;-65
2023/08/29 11:42:21;;;;;;;12.75;11.85;;;25.00;89.70;;;;;;5022350;28;20041;-65
2023/08/29 11:44:48;;;;;;;8.73;8.02;;;25.10;96.20;;;;;;5017536;28;20037;-65
2023/08/29 11:47:14;;;;;;;10.13;9.48;;;25.20;82.90;;;;;;5022698;28;20045;-65
2023/08/29 11:49:46;;;;;;;11.98;11.07;;;25.20;23.20;;;;;;5024515;28;20053;-65
2023/08/29 11:52:12;;;;;;;9.40;8.70;;;25.20;1.00;;;;;;5024427;28;20056;-65
2023/08/29 11:54:46;;;;;;;11.93;11.13;;;25.20;1.00;;;;;;5024299;28;20045;-65
2023/08/29 11:57:13;;;;;;;9.23;8.50;;;25.10;1.00;;;;;;5023508;28;20045;-65
2023/08/29 11:59:42;;;;;;;10.98;10.00;;;25.10;1.00;;;;;;5025432;28;20057;-66
2023/08/29 12:02:11;;;;;;;9.15;8.35;;;25.10;1.00;;;;;;5023025;28;21093;-66
2023/08/29 12:04:41;;;;;;;9.27;8.57;;;25.10;1.00;;;;;;5022186;28;20041;-66
2023/08/29 12:07:14;;;;;;;8.25;7.53;;;25.20;1.00;;;;;;5022250;28;20053;-66
2023/08/29 12:09:43;;;;;;;7.05;6.55;;;25.30;1.00;;;;;;5023274;28;20053;-65
2023/08/29 12:12:27;;;;;;;8.77;8.07;;;25.20;1.00;;;;;;5024752;28;20373;-65
2023/08/29 12:14:53;;;;;;;12.80;11.80;;;25.30;1.00;;;;;;5024228;28;20072;-65
2023/08/29 12:17:20;;;;;;;9.68;8.43;;;25.30;1.00;;;;;;5023792;28;20070;-65
2023/08/29 12:19:48;;;;;;;7.82;7.30;;;25.10;1.00;;;;;;5018322;28;20033;-65
2023/08/29 12:22:19;;;;;;;10.75;9.85;;;25.20;1.00;;;;;;5020940;28;20116;-66
2023/08/29 12:24:54;;;;;;;11.15;10.27;;;24.80;1.00;;;;;;5020950;28;20044;-63
2023/08/29 12:27:19;;;;;;;10.60;9.90;;;24.70;1.00;;;;;;5023147;28;20053;-63
2023/08/29 12:29:45;;;;;;;9.43;8.60;;;24.50;1.00;;;;;;5025046;28;20104;-63
2023/08/29 12:32:12;;;;;;;8.48;7.88;;;24.60;1.00;;;;;;5024369;28;20080;-63